Time;durP1;ratioP1;P1;durP2;ratioP2;P2;SDS_P1;SDS_P2;PMS_P1;PMS_P2;Temp;Humidity;BMP_temperature;BMP_pressure;BME280_temperature;BME280_humidity;BME280_pressure;Samples;Min_cycle;Max_cycle;Signal;HPM_P1;HPM_P2
2023/06/25 00:02:07;;;;;;;6.80;5.90;;;21.20;99.90;;;;;;5087481;28;20193;-71
2023/06/25 00:04:33;;;;;;;5.70;5.20;;;21.10;99.90;;;;;;5087660;28;20207;-71
2023/06/25 00:06:58;;;;;;;6.00;5.50;;;21.00;99.90;;;;;;5088015;28;20212;-71
2023/06/25 00:09:24;;;;;;;6.60;6.00;;;21.00;99.90;;;;;;5087956;28;20276;-70
2023/06/25 00:11:50;;;;;;;5.63;5.03;;;21.00;99.90;;;;;;5087757;28;20191;-70
2023/06/25 00:14:15;;;;;;;6.57;5.70;;;21.10;99.90;;;;;;5086423;28;20177;-71
2023/06/25 00:16:41;;;;;;;6.43;5.00;;;21.10;99.90;;;;;;5086739;28;20181;-70
2023/06/25 00:19:07;;;;;;;5.70;5.20;;;21.00;99.90;;;;;;5087886;28;20208;-70
2023/06/25 00:21:34;;;;;;;6.37;5.70;;;20.80;99.90;;;;;;5090828;28;20168;-70
2023/06/25 00:23:59;;;;;;;6.20;5.60;;;20.80;99.90;;;;;;5091473;28;20172;-70
2023/06/25 00:26:27;;;;;;;5.47;4.70;;;20.70;99.90;;;;;;5091333;28;20834;-70
2023/06/25 00:28:53;;;;;;;6.40;5.80;;;20.70;99.90;;;;;;5099386;28;20172;-70
2023/06/25 00:31:18;;;;;;;5.80;5.23;;;20.60;99.90;;;;;;5102202;28;20413;-70
2023/06/25 00:33:49;;;;;;;6.17;5.53;;;20.60;99.90;;;;;;5091367;28;20658;-71
2023/06/25 00:36:15;;;;;;;6.17;5.40;;;20.60;99.90;;;;;;5090255;28;20185;-71
2023/06/25 00:38:42;;;;;;;6.57;5.60;;;20.60;99.90;;;;;;5086877;28;20430;-70
2023/06/25 00:41:11;;;;;;;7.53;5.33;;;20.50;99.90;;;;;;5090878;28;20834;-70
2023/06/25 00:43:41;;;;;;;5.60;5.10;;;20.50;99.90;;;;;;5090994;28;20419;-71
2023/06/25 00:46:12;;;;;;;5.97;5.47;;;20.50;99.90;;;;;;5091299;28;20442;-70
2023/06/25 00:48:45;;;;;;;5.63;5.23;;;20.60;99.90;;;;;;5091068;28;20783;-70
2023/06/25 00:51:21;;;;;;;6.47;5.87;;;20.50;99.90;;;;;;5091167;28;20552;-70
2023/06/25 00:53:47;;;;;;;6.00;5.40;;;20.30;99.90;;;;;;5091015;28;20418;-71
2023/06/25 00:56:12;;;;;;;6.10;5.60;;;20.10;99.90;;;;;;5091263;28;20807;-70
2023/06/25 00:58:39;;;;;;;6.67;5.47;;;20.10;99.90;;;;;;5091126;28;20185;-71
2023/06/25 01:01:19;;;;;;;7.33;5.80;;;20.10;99.90;;;;;;5091215;28;20184;-70
2023/06/25 01:03:54;;;;;;;6.30;5.70;;;19.90;99.90;;;;;;5090550;28;20510;-71
2023/06/25 01:06:33;;;;;;;6.40;5.87;;;19.80;99.90;;;;;;5090859;28;20464;-71
2023/06/25 01:09:00;;;;;;;6.10;5.57;;;19.80;99.90;;;;;;5090768;28;20456;-71
2023/06/25 01:11:29;;;;;;;6.33;5.40;;;19.70;99.90;;;;;;5090482;28;20499;-70
2023/06/25 01:13:55;;;;;;;6.30;5.70;;;19.60;99.90;;;;;;5090522;28;20411;-71
2023/06/25 01:16:20;;;;;;;6.43;5.60;;;19.50;99.90;;;;;;5090870;28;20988;-71
2023/06/25 01:18:48;;;;;;;6.30;5.57;;;19.40;99.90;;;;;;5090694;28;20319;-71
2023/06/25 01:21:16;;;;;;;5.93;5.40;;;19.50;99.90;;;;;;5090706;28;20689;-71
2023/06/25 01:23:42;;;;;;;6.63;6.00;;;19.60;99.90;;;;;;5090518;28;20773;-71
2023/06/25 01:26:08;;;;;;;5.77;5.27;;;19.70;99.90;;;;;;5090414;28;20457;-71
2023/06/25 01:28:34;;;;;;;6.73;6.10;;;19.70;99.90;;;;;;5090475;28;20430;-71
2023/06/25 01:31:00;;;;;;;6.27;5.67;;;19.80;99.90;;;;;;5089884;28;20266;-70
2023/06/25 01:33:26;;;;;;;6.53;5.93;;;19.80;99.90;;;;;;5088155;28;20419;-71
2023/06/25 01:35:54;;;;;;;6.23;5.60;;;19.60;99.90;;;;;;5090377;28;20581;-71
2023/06/25 01:38:20;;;;;;;6.47;5.87;;;19.70;99.90;;;;;;5090327;28;20550;-71
2023/06/25 01:40:46;;;;;;;6.40;5.80;;;19.70;99.90;;;;;;5090279;28;20488;-71
2023/06/25 01:43:11;;;;;;;6.30;5.70;;;19.80;99.90;;;;;;5089544;28;20402;-71
2023/06/25 01:45:37;;;;;;;10.83;6.73;;;19.60;99.90;;;;;;5086195;28;20188;-71
2023/06/25 01:48:03;;;;;;;7.17;5.87;;;19.70;99.90;;;;;;5089652;28;20212;-71
2023/06/25 01:50:29;;;;;;;6.50;5.90;;;19.60;99.90;;;;;;5089969;28;20211;-71
2023/06/25 01:52:54;;;;;;;5.90;5.10;;;19.50;99.90;;;;;;5088259;28;20955;-71
2023/06/25 01:55:20;;;;;;;6.73;6.13;;;19.30;99.90;;;;;;5089920;28;20176;-71
2023/06/25 01:57:46;;;;;;;5.80;5.30;;;19.30;99.90;;;;;;5087977;28;20177;-70
2023/06/25 02:00:12;;;;;;;7.83;5.90;;;19.30;99.90;;;;;;5089901;28;20742;-70
2023/06/25 02:02:38;;;;;;;6.93;5.87;;;19.30;99.90;;;;;;5089439;28;20181;-70
2023/06/25 02:05:04;;;;;;;7.17;5.70;;;19.40;99.90;;;;;;5087557;28;20529;-70
2023/06/25 02:07:30;;;;;;;6.67;6.07;;;19.30;99.90;;;;;;5086992;28;20235;-70
2023/06/25 02:09:56;;;;;;;8.03;6.17;;;19.40;99.90;;;;;;5088067;28;20463;-70
2023/06/25 02:12:22;;;;;;;7.03;5.97;;;19.40;99.90;;;;;;5089186;28;20180;-70
2023/06/25 02:14:47;;;;;;;6.57;5.97;;;19.30;99.90;;;;;;5086930;28;20483;-70
2023/06/25 02:17:13;;;;;;;7.37;6.53;;;19.30;99.90;;;;;;5087964;28;20284;-70
2023/06/25 02:19:39;;;;;;;7.10;5.73;;;19.30;99.90;;;;;;5089409;28;20669;-70
2023/06/25 02:22:05;;;;;;;6.37;5.77;;;19.30;99.90;;;;;;5089047;28;20173;-71
2023/06/25 02:24:30;;;;;;;7.03;6.23;;;19.20;99.90;;;;;;5089110;28;20173;-70
2023/06/25 02:26:57;;;;;;;6.70;5.70;;;19.20;99.90;;;;;;5087894;28;20515;-71
2023/06/25 02:29:22;;;;;;;6.50;5.90;;;19.20;99.90;;;;;;5089282;28;20200;-71
2023/06/25 02:31:48;;;;;;;6.53;5.93;;;19.20;99.90;;;;;;5086848;28;20422;-71
2023/06/25 02:34:16;;;;;;;6.40;5.80;;;19.20;99.90;;;;;;5084604;28;20193;-71
2023/06/25 02:36:42;;;;;;;6.47;5.67;;;19.10;99.90;;;;;;5087453;28;20935;-71
2023/06/25 02:39:08;;;;;;;6.37;5.73;;;19.00;99.90;;;;;;5088817;28;20919;-70
2023/06/25 02:41:34;;;;;;;6.30;5.70;;;18.90;99.90;;;;;;5088789;28;20425;-70
2023/06/25 02:44:00;;;;;;;9.23;6.50;;;18.90;99.90;;;;;;5087763;28;20747;-70
2023/06/25 02:46:25;;;;;;;6.93;6.23;;;18.80;99.90;;;;;;5088931;28;20676;-71
2023/06/25 02:48:51;;;;;;;6.60;6.00;;;18.80;99.90;;;;;;5088999;28;20177;-71
2023/06/25 02:51:17;;;;;;;6.77;6.13;;;18.80;99.90;;;;;;5088664;28;20176;-71
2023/06/25 02:53:42;;;;;;;8.40;6.07;;;18.80;99.90;;;;;;5087082;28;20187;-71
2023/06/25 02:56:08;;;;;;;6.93;6.23;;;18.70;99.90;;;;;;5087617;28;20176;-69
2023/06/25 02:58:34;;;;;;;7.00;6.40;;;18.70;99.90;;;;;;5085465;28;20668;-69
2023/06/25 03:00:59;;;;;;;6.60;6.00;;;18.60;99.90;;;;;;5086846;28;20590;-71
2023/06/25 03:03:25;;;;;;;7.13;6.03;;;18.50;99.90;;;;;;5088027;28;20185;-71
2023/06/25 03:05:51;;;;;;;7.17;6.57;;;18.40;99.90;;;;;;5088770;28;20650;-70
2023/06/25 03:08:16;;;;;;;7.47;6.67;;;18.30;99.90;;;;;;5088786;28;20677;-71
2023/06/25 03:10:42;;;;;;;8.63;6.93;;;18.20;99.90;;;;;;5088588;28;20235;-71
2023/06/25 03:13:08;;;;;;;6.40;5.77;;;18.10;99.90;;;;;;5086756;28;20176;-71
2023/06/25 03:15:33;;;;;;;6.77;6.07;;;18.20;99.90;;;;;;5088545;28;20181;-70
2023/06/25 03:17:59;;;;;;;6.57;5.97;;;18.10;99.90;;;;;;5086496;28;20192;-70
2023/06/25 03:20:25;;;;;;;7.10;6.40;;;18.10;99.90;;;;;;5085120;28;20204;-70
2023/06/25 03:22:50;;;;;;;7.20;6.60;;;18.00;99.90;;;;;;5087896;28;20241;-70
2023/06/25 03:25:16;;;;;;;7.20;6.20;;;17.90;99.90;;;;;;5088402;28;20189;-70
2023/06/25 03:27:42;;;;;;;6.80;6.20;;;18.10;99.90;;;;;;5088397;28;20221;-70
2023/06/25 03:30:08;;;;;;;7.50;6.80;;;18.30;99.90;;;;;;5088371;28;20200;-70
2023/06/25 03:32:33;;;;;;;7.30;6.67;;;18.40;99.90;;;;;;5088025;28;20176;-70
2023/06/25 03:34:59;;;;;;;7.83;7.13;;;18.50;99.90;;;;;;5088411;28;20883;-70
2023/06/25 03:37:25;;;;;;;7.47;6.77;;;18.50;99.90;;;;;;5088477;28;20188;-70
2023/06/25 03:39:51;;;;;;;8.13;7.00;;;18.50;99.90;;;;;;5088425;28;20216;-70
2023/06/25 03:42:17;;;;;;;13.93;6.90;;;18.40;99.90;;;;;;5087924;28;20475;-70
2023/06/25 03:44:49;;;;;;;7.70;7.00;;;18.60;99.90;;;;;;5085735;28;20184;-70
2023/06/25 03:47:15;;;;;;;7.97;7.17;;;18.60;99.90;;;;;;5083055;28;20200;-70
2023/06/25 03:49:42;;;;;;;8.83;8.03;;;18.70;99.90;;;;;;5088267;28;20852;-70
2023/06/25 03:52:08;;;;;;;8.20;7.33;;;18.80;99.90;;;;;;5087872;28;20195;-70
2023/06/25 03:54:33;;;;;;;8.57;7.77;;;18.90;99.90;;;;;;5088256;28;20539;-70
2023/06/25 03:56:59;;;;;;;8.43;7.70;;;18.90;99.90;;;;;;5092269;28;20188;-70
2023/06/25 03:59:25;;;;;;;9.07;7.80;;;19.00;99.90;;;;;;5086480;28;20742;-70
2023/06/25 04:01:51;;;;;;;7.53;6.93;;;19.00;99.90;;;;;;5091794;28;20188;-71
2023/06/25 04:04:16;;;;;;;8.40;7.50;;;19.10;99.90;;;;;;5091747;28;20280;-71
2023/06/25 04:06:42;;;;;;;8.53;7.57;;;19.10;99.90;;;;;;5092453;28;20212;-71
2023/06/25 04:09:08;;;;;;;8.80;8.00;;;19.20;99.90;;;;;;5092069;28;20596;-71
2023/06/25 04:11:33;;;;;;;7.80;7.00;;;19.20;99.90;;;;;;5091621;28;20165;-71
2023/06/25 04:13:59;;;;;;;8.07;7.27;;;19.20;99.90;;;;;;5091683;28;20232;-71
2023/06/25 04:16:25;;;;;;;9.10;8.30;;;19.20;99.90;;;;;;5091940;28;20180;-71
2023/06/25 04:18:50;;;;;;;8.77;7.87;;;19.30;99.90;;;;;;5091943;28;20184;-71
2023/06/25 04:21:16;;;;;;;9.13;8.23;;;19.30;99.90;;;;;;5091636;28;20181;-71
2023/06/25 04:23:42;;;;;;;8.57;7.70;;;19.40;99.90;;;;;;5091468;28;20660;-71
2023/06/25 04:26:07;;;;;;;8.57;7.67;;;19.40;99.90;;;;;;5091595;28;20184;-71
2023/06/25 04:28:33;;;;;;;9.03;8.13;;;19.50;99.90;;;;;;5096567;28;20182;-71
2023/06/25 04:30:58;;;;;;;8.50;7.70;;;19.50;99.90;;;;;;5093239;28;20204;-71
2023/06/25 04:33:24;;;;;;;8.43;7.40;;;19.50;99.90;;;;;;5090747;28;20184;-71
2023/06/25 04:35:50;;;;;;;9.23;8.13;;;19.50;99.90;;;;;;5087022;28;20180;-71
2023/06/25 04:38:15;;;;;;;7.43;6.77;;;19.60;99.90;;;;;;5089123;28;20193;-71
2023/06/25 04:40:41;;;;;;;8.53;7.83;;;19.60;99.90;;;;;;5091174;28;20207;-71
2023/06/25 04:43:07;;;;;;;8.13;7.33;;;19.70;99.90;;;;;;5090853;28;20192;-70
2023/06/25 04:45:33;;;;;;;9.70;7.37;;;19.70;99.90;;;;;;5090089;28;20541;-71
2023/06/25 04:47:58;;;;;;;8.00;7.30;;;19.80;99.90;;;;;;5088234;28;20670;-71
2023/06/25 04:50:24;;;;;;;8.70;7.87;;;19.80;99.90;;;;;;5090972;28;20199;-70
2023/06/25 04:52:50;;;;;;;8.57;7.70;;;19.90;99.90;;;;;;5090501;28;20180;-70
2023/06/25 04:55:15;;;;;;;10.20;7.33;;;20.00;99.90;;;;;;5091157;28;20212;-71
2023/06/25 04:57:41;;;;;;;8.43;7.63;;;20.00;99.90;;;;;;5089442;28;20641;-70
2023/06/25 05:00:07;;;;;;;8.20;7.43;;;20.10;99.90;;;;;;5088690;28;20573;-70
2023/06/25 05:02:34;;;;;;;8.60;7.40;;;20.20;99.90;;;;;;5091082;28;20181;-70
2023/06/25 05:04:59;;;;;;;8.50;7.77;;;20.20;99.90;;;;;;5090689;28;20434;-70
2023/06/25 05:07:25;;;;;;;8.27;7.57;;;20.40;99.90;;;;;;5090098;28;20454;-70
2023/06/25 05:09:51;;;;;;;8.80;8.00;;;20.40;99.90;;;;;;5091222;28;20264;-70
2023/06/25 05:12:16;;;;;;;8.47;7.77;;;20.60;99.90;;;;;;5090648;28;20188;-70
2023/06/25 05:14:42;;;;;;;7.93;7.20;;;20.60;99.90;;;;;;5088647;28;20259;-71
2023/06/25 05:17:08;;;;;;;8.40;7.70;;;20.80;99.90;;;;;;5087907;28;20180;-71
2023/06/25 05:19:33;;;;;;;8.43;7.47;;;20.90;99.90;;;;;;5090459;28;20207;-71
2023/06/25 05:21:59;;;;;;;8.07;7.30;;;20.90;99.90;;;;;;5090483;28;20196;-70
2023/06/25 05:24:25;;;;;;;9.17;7.40;;;21.00;99.90;;;;;;5088205;28;20193;-71
2023/06/25 05:26:50;;;;;;;8.50;7.80;;;21.10;99.90;;;;;;5090410;28;20216;-71
2023/06/25 05:29:16;;;;;;;8.73;7.83;;;21.20;99.90;;;;;;5090644;28;20192;-70
2023/06/25 05:31:42;;;;;;;8.30;7.50;;;21.30;99.90;;;;;;5090357;28;20191;-70
2023/06/25 05:34:07;;;;;;;7.93;7.23;;;21.50;99.90;;;;;;5090367;28;20173;-70
2023/06/25 05:36:33;;;;;;;7.73;7.03;;;21.60;99.90;;;;;;5090522;28;20180;-70
2023/06/25 05:38:59;;;;;;;8.40;7.50;;;21.70;99.90;;;;;;5090588;28;20572;-70
2023/06/25 05:41:24;;;;;;;10.40;7.93;;;21.80;99.90;;;;;;5090086;28;20328;-70
2023/06/25 05:43:50;;;;;;;9.03;8.13;;;21.90;99.90;;;;;;5088972;28;20625;-70
2023/06/25 05:46:16;;;;;;;8.80;7.90;;;22.10;99.90;;;;;;5088585;28;20219;-70
2023/06/25 05:48:44;;;;;;;8.13;7.40;;;22.20;99.90;;;;;;5089996;28;20184;-70
2023/06/25 05:51:09;;;;;;;8.20;7.40;;;22.30;99.90;;;;;;5090129;28;20422;-71
2023/06/25 05:53:40;;;;;;;9.07;8.27;;;22.50;99.90;;;;;;5089560;28;20418;-70
2023/06/25 05:56:06;;;;;;;8.57;7.87;;;22.60;99.90;;;;;;5090099;28;20188;-71
2023/06/25 05:58:33;;;;;;;8.00;7.30;;;22.80;99.90;;;;;;5089044;28;20966;-71
2023/06/25 06:00:59;;;;;;;8.30;7.60;;;22.90;99.90;;;;;;5089879;28;20750;-71
2023/06/25 06:03:24;;;;;;;8.40;7.60;;;23.10;99.90;;;;;;5089420;28;20513;-70
2023/06/25 06:05:50;;;;;;;9.10;7.57;;;23.20;99.90;;;;;;5089745;28;20188;-71
2023/06/25 06:08:16;;;;;;;7.90;7.20;;;23.40;99.90;;;;;;5089887;28;20208;-71
2023/06/25 06:10:41;;;;;;;9.27;8.47;;;23.50;99.90;;;;;;5086584;28;20204;-71
2023/06/25 06:13:07;;;;;;;8.23;7.57;;;23.60;99.90;;;;;;5087577;28;20180;-71
2023/06/25 06:15:33;;;;;;;7.47;6.87;;;23.70;99.90;;;;;;5087038;28;20180;-71
2023/06/25 06:17:58;;;;;;;6.57;5.97;;;23.80;99.90;;;;;;5086343;28;20891;-70
2023/06/25 06:20:24;;;;;;;8.20;7.60;;;23.90;99.90;;;;;;5088115;28;20200;-71
2023/06/25 06:22:49;;;;;;;8.30;7.60;;;24.10;99.90;;;;;;5089224;28;20655;-71
2023/06/25 06:25:15;;;;;;;8.17;7.47;;;24.10;99.90;;;;;;5089317;28;20674;-72
2023/06/25 06:27:41;;;;;;;7.23;6.53;;;24.20;99.90;;;;;;5089178;28;20224;-70
2023/06/25 06:30:07;;;;;;;7.03;5.90;;;24.40;99.90;;;;;;5086200;28;20232;-69
2023/06/25 06:32:33;;;;;;;8.20;7.30;;;24.50;99.90;;;;;;5088643;28;20185;-70
2023/06/25 06:34:58;;;;;;;7.97;7.27;;;24.60;99.90;;;;;;5087529;28;20488;-70
2023/06/25 06:37:24;;;;;;;7.60;6.90;;;24.80;99.90;;;;;;5087944;28;20184;-71
2023/06/25 06:39:50;;;;;;;7.50;6.90;;;24.90;99.90;;;;;;5089270;28;20211;-73
2023/06/25 06:42:15;;;;;;;7.63;6.80;;;25.00;99.90;;;;;;5088725;28;20195;-72
2023/06/25 06:44:41;;;;;;;7.73;6.93;;;25.20;99.90;;;;;;5088728;28;20234;-71
2023/06/25 06:47:07;;;;;;;6.73;6.23;;;25.30;99.90;;;;;;5089044;28;20216;-70
2023/06/25 06:49:32;;;;;;;7.00;6.40;;;25.40;99.90;;;;;;5088862;28;20197;-71
2023/06/25 06:51:58;;;;;;;7.30;6.70;;;25.40;99.90;;;;;;5088813;28;20657;-71
2023/06/25 06:54:24;;;;;;;7.20;6.50;;;25.50;99.90;;;;;;5087680;28;20441;-70
2023/06/25 06:56:49;;;;;;;7.40;6.80;;;25.50;99.90;;;;;;5087546;28;20199;-71
2023/06/25 06:59:15;;;;;;;7.07;6.47;;;25.50;99.90;;;;;;5088426;28;20726;-72
2023/06/25 07:01:40;;;;;;;7.07;6.47;;;25.60;99.90;;;;;;5084137;28;20192;-71
2023/06/25 07:04:06;;;;;;;7.60;6.87;;;25.70;99.90;;;;;;5088229;28;20205;-72
2023/06/25 07:06:32;;;;;;;7.10;6.50;;;25.70;99.90;;;;;;5084674;28;20208;-72
2023/06/25 07:08:57;;;;;;;6.63;6.03;;;25.80;99.90;;;;;;5088393;28;20184;-71
2023/06/25 07:11:23;;;;;;;7.63;6.93;;;25.80;99.90;;;;;;5088084;28;20375;-71
2023/06/25 07:13:50;;;;;;;6.97;6.37;;;25.80;99.90;;;;;;5070275;28;20225;-70
2023/06/25 07:16:16;;;;;;;6.93;6.33;;;25.80;99.90;;;;;;5088702;28;20532;-71
2023/06/25 07:18:43;;;;;;;7.10;6.37;;;25.90;99.90;;;;;;5088477;28;20425;-71
2023/06/25 07:21:09;;;;;;;7.57;6.77;;;25.90;99.90;;;;;;5088450;28;20544;-71
2023/06/25 07:23:36;;;;;;;7.20;6.70;;;26.00;99.90;;;;;;5087998;28;20403;-71
2023/06/25 07:26:03;;;;;;;7.43;6.73;;;26.10;99.90;;;;;;5088357;28;20498;-71
2023/06/25 07:28:29;;;;;;;7.23;6.57;;;26.20;99.90;;;;;;5088571;28;20429;-71
2023/06/25 07:30:54;;;;;;;6.43;5.93;;;26.30;99.90;;;;;;5086937;28;20434;-71
2023/06/25 07:33:20;;;;;;;7.33;6.77;;;26.40;99.70;;;;;;5086968;28;20434;-71
2023/06/25 07:35:45;;;;;;;7.60;6.90;;;26.50;99.40;;;;;;5088257;28;20180;-71
2023/06/25 07:38:11;;;;;;;7.43;6.80;;;26.60;98.70;;;;;;5088561;28;20192;-70
2023/06/25 07:40:37;;;;;;;6.70;6.10;;;26.60;98.10;;;;;;5088307;28;20701;-71
2023/06/25 07:43:03;;;;;;;6.63;6.13;;;26.60;98.20;;;;;;5087954;28;20591;-71
2023/06/25 07:45:29;;;;;;;7.43;6.83;;;26.60;97.80;;;;;;5088341;28;20548;-70
2023/06/25 07:47:56;;;;;;;6.93;6.27;;;26.60;97.40;;;;;;5088330;28;20450;-71
2023/06/25 07:50:22;;;;;;;7.17;6.50;;;26.60;97.70;;;;;;5088654;28;20710;-70
2023/06/25 07:52:47;;;;;;;7.23;6.53;;;26.60;98.00;;;;;;5087691;28;20422;-71
2023/06/25 07:55:13;;;;;;;6.97;6.37;;;26.70;97.70;;;;;;5087946;28;20459;-73
2023/06/25 07:57:39;;;;;;;6.70;6.00;;;26.70;98.10;;;;;;5086879;28;20191;-72
2023/06/25 08:00:06;;;;;;;7.23;6.53;;;26.80;98.00;;;;;;5085787;28;20216;-71
2023/06/25 08:02:31;;;;;;;6.60;6.10;;;26.80;98.40;;;;;;5087459;28;20472;-71
2023/06/25 08:04:57;;;;;;;7.27;6.57;;;26.90;97.70;;;;;;5087882;28;20434;-71
2023/06/25 08:07:23;;;;;;;6.80;6.20;;;26.90;97.50;;;;;;5088197;28;20611;-70
2023/06/25 08:09:49;;;;;;;6.23;5.73;;;26.90;97.30;;;;;;5086527;28;20200;-70
2023/06/25 08:12:15;;;;;;;7.57;6.77;;;26.90;97.00;;;;;;5087240;28;20920;-71
2023/06/25 08:14:40;;;;;;;6.60;6.00;;;26.80;96.40;;;;;;5085678;28;20705;-71
2023/06/25 08:17:06;;;;;;;6.53;5.87;;;26.80;96.40;;;;;;5086012;28;20216;-71
2023/06/25 08:19:32;;;;;;;7.03;5.90;;;26.70;96.40;;;;;;5087286;28;20193;-71
2023/06/25 08:21:58;;;;;;;6.40;5.73;;;26.70;96.10;;;;;;5082349;28;20180;-71
2023/06/25 08:24:23;;;;;;;6.50;5.90;;;26.70;96.40;;;;;;5086924;28;20260;-71
2023/06/25 08:26:49;;;;;;;7.60;6.90;;;26.70;96.60;;;;;;5086764;28;20675;-71
2023/06/25 08:29:15;;;;;;;6.27;5.77;;;26.60;94.50;;;;;;5080154;28;20208;-71
2023/06/25 08:31:40;;;;;;;7.00;6.40;;;26.60;95.70;;;;;;5085399;28;20181;-72
2023/06/25 08:34:07;;;;;;;7.17;6.57;;;26.60;95.20;;;;;;5086833;28;20926;-71
2023/06/25 08:36:32;;;;;;;6.83;6.33;;;26.70;95.50;;;;;;5087223;28;20222;-71
2023/06/25 08:38:58;;;;;;;6.20;5.60;;;26.70;95.20;;;;;;5087379;28;20481;-70
2023/06/25 08:41:26;;;;;;;6.47;5.97;;;26.70;94.70;;;;;;5087001;28;20661;-71
2023/06/25 08:43:53;;;;;;;6.60;6.10;;;26.80;94.80;;;;;;5090689;28;20197;-73
2023/06/25 08:46:24;;;;;;;7.03;6.43;;;26.90;94.80;;;;;;5083192;28;21014;-70
2023/06/25 08:48:54;;;;;;;6.97;6.47;;;26.90;94.10;;;;;;5084537;28;20442;-71
2023/06/25 08:51:24;;;;;;;6.70;6.07;;;26.90;94.50;;;;;;5090669;28;20430;-70
2023/06/25 08:53:50;;;;;;;7.17;6.57;;;26.90;94.50;;;;;;5082911;28;20656;-70
2023/06/25 08:56:16;;;;;;;7.50;6.90;;;26.90;93.90;;;;;;5084923;28;20904;-70
2023/06/25 08:58:42;;;;;;;6.43;5.90;;;27.00;93.10;;;;;;5085495;28;20204;-70
2023/06/25 09:01:09;;;;;;;6.10;5.60;;;27.00;93.40;;;;;;5093131;28;20195;-70
2023/06/25 09:03:35;;;;;;;6.50;5.90;;;27.10;92.90;;;;;;5081165;28;20451;-71
2023/06/25 09:06:01;;;;;;;7.63;6.93;;;27.20;93.40;;;;;;5094443;28;20460;-70
2023/06/25 09:08:27;;;;;;;7.07;6.50;;;27.30;93.60;;;;;;5082021;28;20212;-71
2023/06/25 09:10:55;;;;;;;7.33;6.77;;;27.40;93.90;;;;;;5085335;28;20324;-71
2023/06/25 09:13:22;;;;;;;6.40;5.87;;;27.50;92.60;;;;;;5088818;28;20446;-71
2023/06/25 09:15:48;;;;;;;6.30;5.83;;;27.60;91.70;;;;;;5091122;28;20458;-70
2023/06/25 09:18:13;;;;;;;6.43;5.87;;;27.70;92.10;;;;;;5091575;28;20451;-70
2023/06/25 09:20:46;;;;;;;6.87;6.37;;;27.80;92.20;;;;;;5094720;28;20518;-71
2023/06/25 09:23:21;;;;;;;7.33;6.73;;;27.80;91.50;;;;;;5085602;28;20193;-71
2023/06/25 09:25:50;;;;;;;6.60;6.10;;;27.90;90.80;;;;;;5092840;28;20461;-70
2023/06/25 09:28:16;;;;;;;7.10;6.50;;;27.90;90.00;;;;;;5091821;28;20471;-71
2023/06/25 09:30:42;;;;;;;6.80;6.30;;;28.00;89.60;;;;;;5086332;27;20615;-71
2023/06/25 09:33:10;;;;;;;6.60;6.10;;;28.00;90.70;;;;;;5082552;28;20446;-71
2023/06/25 09:35:36;;;;;;;6.87;6.27;;;28.10;91.20;;;;;;5086309;28;20219;-71
2023/06/25 09:38:02;;;;;;;7.03;6.43;;;28.20;91.10;;;;;;5086356;28;20493;-71
2023/06/25 09:40:28;;;;;;;8.00;7.30;;;28.20;90.30;;;;;;5084047;27;20481;-71
2023/06/25 09:42:59;;;;;;;7.60;6.90;;;28.20;90.10;;;;;;5082765;28;20207;-71
2023/06/25 09:45:26;;;;;;;6.87;6.30;;;28.40;90.20;;;;;;5090077;27;20452;-71
2023/06/25 09:47:53;;;;;;;7.07;6.47;;;28.40;90.20;;;;;;5084282;28;21033;-71
2023/06/25 09:50:23;;;;;;;7.13;6.63;;;28.50;90.00;;;;;;5093293;28;20473;-71
2023/06/25 09:52:55;;;;;;;7.70;7.10;;;28.50;89.20;;;;;;5085880;28;20495;-71
2023/06/25 09:55:21;;;;;;;6.53;6.03;;;28.50;88.50;;;;;;5091291;28;20454;-71
2023/06/25 09:57:48;;;;;;;6.97;6.30;;;28.60;87.80;;;;;;5077244;28;20462;-71
2023/06/25 10:00:16;;;;;;;7.57;6.77;;;28.60;87.50;;;;;;5091991;27;20299;-71
2023/06/25 10:02:42;;;;;;;6.80;6.30;;;28.70;88.00;;;;;;5085201;28;20512;-71
2023/06/25 10:05:07;;;;;;;7.17;6.57;;;28.70;87.70;;;;;;5091131;28;21034;-71
2023/06/25 10:07:34;;;;;;;6.87;6.37;;;28.80;87.20;;;;;;5085189;28;20208;-72
2023/06/25 10:10:00;;;;;;;6.30;5.83;;;28.80;87.00;;;;;;5084791;27;20219;-71
2023/06/25 10:12:26;;;;;;;6.90;6.20;;;28.90;87.30;;;;;;5085666;28;20441;-71
2023/06/25 10:14:53;;;;;;;6.87;6.20;;;28.90;87.50;;;;;;5088803;28;20205;-71
2023/06/25 10:17:22;;;;;;;6.57;6.07;;;29.00;86.00;;;;;;5080385;28;20192;-72
2023/06/25 10:20:06;;;;;;;7.80;7.00;;;29.00;86.90;;;;;;5087032;28;20456;-71
2023/06/25 10:22:33;;;;;;;6.33;5.80;;;29.10;88.50;;;;;;5078003;28;20431;-71
2023/06/25 10:24:59;;;;;;;6.70;6.20;;;29.10;88.20;;;;;;5084190;28;20468;-72
2023/06/25 10:27:24;;;;;;;6.37;5.87;;;29.20;87.20;;;;;;5084729;28;20857;-72
2023/06/25 10:29:54;;;;;;;6.43;5.93;;;29.30;85.80;;;;;;5083549;28;20200;-72
2023/06/25 10:32:24;;;;;;;6.80;6.20;;;29.30;87.50;;;;;;5084200;28;20264;-71
2023/06/25 10:35:01;;;;;;;7.00;6.50;;;29.40;88.00;;;;;;5080536;28;20423;-71
2023/06/25 10:37:31;;;;;;;6.80;6.20;;;29.50;85.90;;;;;;5082692;28;20927;-71
2023/06/25 10:40:08;;;;;;;6.70;6.20;;;29.50;85.30;;;;;;5081919;28;20485;-71
2023/06/25 10:42:37;;;;;;;7.73;7.03;;;29.60;85.80;;;;;;5084549;28;20922;-71
2023/06/25 10:45:04;;;;;;;6.70;6.23;;;29.60;81.80;;;;;;5080150;28;20480;-71
2023/06/25 10:47:30;;;;;;;7.20;6.57;;;29.50;82.70;;;;;;5083228;28;20462;-70
2023/06/25 10:49:56;;;;;;;8.07;6.83;;;29.30;83.60;;;;;;5083445;28;20423;-71
2023/06/25 10:52:22;;;;;;;31.57;9.20;;;29.30;85.80;;;;;;5077551;28;20421;-71
2023/06/25 10:54:47;;;;;;;6.80;6.20;;;29.30;87.30;;;;;;5081547;28;20415;-71
2023/06/25 10:57:15;;;;;;;6.47;6.00;;;29.40;87.30;;;;;;5082242;28;20703;-70
2023/06/25 10:59:45;;;;;;;7.10;6.50;;;29.40;83.30;;;;;;5078206;28;20221;-70
2023/06/25 11:02:18;;;;;;;7.00;6.33;;;29.40;83.30;;;;;;5082873;28;20767;-69
2023/06/25 11:04:58;;;;;;;6.43;5.93;;;29.30;83.00;;;;;;5085772;28;20450;-69
2023/06/25 11:07:25;;;;;;;6.80;6.30;;;29.30;82.00;;;;;;5077899;28;20466;-70
2023/06/25 11:09:54;;;;;;;6.70;6.10;;;29.30;85.70;;;;;;5086571;28;20439;-70
2023/06/25 11:12:20;;;;;;;6.43;5.93;;;29.40;81.70;;;;;;5076048;28;20416;-70
2023/06/25 11:14:46;;;;;;;7.17;6.50;;;29.40;82.80;;;;;;5083504;28;20471;-70
2023/06/25 11:17:18;;;;;;;7.13;6.43;;;29.50;82.60;;;;;;5081708;28;20913;-70
2023/06/25 11:19:51;;;;;;;6.90;6.40;;;29.50;82.70;;;;;;5082550;28;20242;-69
2023/06/25 11:22:16;;;;;;;6.93;6.33;;;29.60;86.50;;;;;;5080496;28;20427;-69
2023/06/25 11:24:42;;;;;;;7.30;6.60;;;29.70;84.70;;;;;;5080001;28;20758;-69
2023/06/25 11:27:09;;;;;;;7.17;6.57;;;29.70;84.70;;;;;;5084671;28;20208;-69
2023/06/25 11:29:37;;;;;;;7.00;6.50;;;29.80;86.70;;;;;;5084849;28;20510;-69
2023/06/25 11:32:08;;;;;;;6.63;6.10;;;29.80;81.70;;;;;;5083054;28;20521;-70
2023/06/25 11:34:35;;;;;;;6.60;6.00;;;29.80;84.10;;;;;;5082923;28;20412;-70
2023/06/25 11:37:11;;;;;;;6.60;6.10;;;29.80;81.70;;;;;;5081474;28;20423;-69
2023/06/25 11:39:47;;;;;;;6.50;6.00;;;29.70;80.00;;;;;;5076078;28;20481;-70
2023/06/25 11:42:15;;;;;;;6.70;6.20;;;29.80;83.20;;;;;;5085802;28;21084;-70
2023/06/25 11:44:41;;;;;;;8.27;6.67;;;29.90;80.60;;;;;;5084829;28;20499;-70
2023/06/25 11:47:07;;;;;;;6.87;6.30;;;29.80;80.00;;;;;;5085196;28;20466;-70
2023/06/25 11:49:33;;;;;;;7.60;6.73;;;29.80;80.20;;;;;;5082013;28;20435;-70
2023/06/25 11:51:58;;;;;;;6.87;6.27;;;29.80;79.60;;;;;;5077510;28;20528;-69
2023/06/25 11:54:24;;;;;;;6.77;6.27;;;29.80;78.50;;;;;;5077724;28;20639;-71
2023/06/25 11:56:50;;;;;;;5.67;5.27;;;29.80;81.80;;;;;;5085668;28;20662;-71
2023/06/25 11:59:16;;;;;;;6.63;6.10;;;29.80;76.80;;;;;;5077351;28;20220;-71
2023/06/25 12:01:41;;;;;;;6.43;5.93;;;29.80;78.00;;;;;;5083582;28;20717;-70
2023/06/25 12:04:07;;;;;;;6.90;6.30;;;29.80;78.70;;;;;;5081370;28;20200;-70
2023/06/25 12:06:33;;;;;;;7.20;6.60;;;29.80;78.60;;;;;;5081460;28;20212;-70
2023/06/25 12:08:58;;;;;;;5.63;5.13;;;29.90;80.90;;;;;;5083686;28;20367;-70
2023/06/25 12:11:24;;;;;;;6.40;5.87;;;29.90;80.50;;;;;;5082026;28;20189;-70
2023/06/25 12:13:50;;;;;;;6.70;6.20;;;30.00;79.80;;;;;;5080364;28;20180;-70
2023/06/25 12:16:16;;;;;;;6.20;5.70;;;30.00;80.90;;;;;;5082829;28;20189;-70
2023/06/25 12:18:41;;;;;;;6.67;6.00;;;30.00;80.30;;;;;;5086380;28;20196;-70
2023/06/25 12:21:07;;;;;;;6.90;6.30;;;30.10;79.50;;;;;;5084048;28;20479;-70
2023/06/25 12:23:32;;;;;;;7.50;6.90;;;30.10;75.20;;;;;;5083531;28;20310;-70
2023/06/25 12:25:58;;;;;;;7.20;6.60;;;30.10;77.30;;;;;;5083029;28;20188;-70
2023/06/25 12:28:24;;;;;;;6.20;5.80;;;30.10;77.90;;;;;;5089574;28;20681;-70
2023/06/25 12:30:49;;;;;;;7.30;6.60;;;30.10;77.60;;;;;;5090120;28;20810;-71
2023/06/25 12:33:15;;;;;;;7.07;6.13;;;30.10;76.20;;;;;;5080311;28;20189;-71
2023/06/25 12:35:41;;;;;;;6.53;6.03;;;30.10;76.20;;;;;;5084360;28;20211;-70
2023/06/25 12:38:07;;;;;;;6.30;5.90;;;29.90;78.10;;;;;;5080449;28;20318;-70
2023/06/25 12:40:32;;;;;;;6.77;6.17;;;29.80;77.30;;;;;;5084328;28;20949;-70
2023/06/25 12:42:59;;;;;;;6.90;6.20;;;29.70;76.50;;;;;;5083286;28;20271;-71